createdAt,value
2023-02-07T00:02:11.727Z,97010.22
2023-02-07T00:05:54.700Z,97012.69
2023-02-07T00:09:37.626Z,97011.38
2023-02-07T00:13:21.650Z,97008.97
2023-02-07T00:17:07.231Z,97019.44
2023-02-07T00:20:59.017Z,97005.81
2023-02-07T00:24:41.770Z,97006.31
2023-02-07T00:28:26.066Z,97015.84
2023-02-07T00:32:09.214Z,97006.31
2023-02-07T00:36:00.647Z,97000.25
2023-02-07T00:39:43.570Z,96982.28
2023-02-07T00:43:29.832Z,96981.28
2023-02-07T00:47:12.788Z,96987.53
2023-02-07T00:50:56.090Z,96992.09
2023-02-07T00:54:43.467Z,96990.59
2023-02-07T00:58:27.514Z,96987.34
2023-02-07T01:02:10.256Z,96981.28
2023-02-07T01:05:56.880Z,96995.91
2023-02-07T01:09:39.648Z,96996.56
2023-02-07T01:13:22.329Z,97000.00
2023-02-07T01:17:06.372Z,97001.84
2023-02-07T01:20:49.182Z,96986.25
2023-02-07T01:24:32.059Z,97000.19
2023-02-07T01:28:15.943Z,97016.53
2023-02-07T01:31:58.751Z,97005.31
2023-02-07T01:35:47.104Z,97018.94
2023-02-07T01:39:29.875Z,97028.06
2023-02-07T01:43:17.185Z,97020.66
2023-02-07T01:46:59.890Z,97003.47
2023-02-07T01:50:45.508Z,97006.28
2023-02-07T01:54:31.885Z,97014.91
2023-02-07T01:58:14.703Z,97020.22
2023-02-07T02:01:58.041Z,97021.38
2023-02-07T02:05:42.455Z,97017.72
2023-02-07T02:09:30.376Z,97032.25
2023-02-07T02:13:24.708Z,97024.63
2023-02-07T02:17:15.446Z,97035.97
2023-02-07T02:21:55.777Z,97023.41
2023-02-07T02:26:06.152Z,97039.78
2023-02-07T02:30:01.066Z,97034.94
2023-02-07T02:33:49.461Z,97034.84
2023-02-07T02:37:37.317Z,97042.81
2023-02-07T02:41:22.853Z,97031.44
2023-02-07T02:45:11.486Z,97041.75
2023-02-07T02:48:56.040Z,97040.06
2023-02-07T02:52:50.206Z,97040.06
2023-02-07T02:56:43.759Z,97046.88
2023-02-07T03:00:56.624Z,97053.25
2023-02-07T03:05:09.923Z,97066.25
2023-02-07T03:08:55.846Z,97056.97
2023-02-07T03:12:42.969Z,97053.75
2023-02-07T03:16:29.842Z,97072.38
2023-02-07T03:20:19.568Z,97086.84
2023-02-07T03:24:05.431Z,97066.53
2023-02-07T03:27:49.126Z,97052.09
2023-02-07T03:31:33.261Z,97044.59
2023-02-07T03:35:20.361Z,97051.56
2023-02-07T03:39:03.141Z,97041.41
2023-02-07T03:42:50.913Z,97034.63
2023-02-07T03:46:35.653Z,97037.94
2023-02-07T03:50:22.097Z,97013.88
2023-02-07T03:54:05.233Z,97017.53
2023-02-07T03:57:48.054Z,97033.84
2023-02-07T04:01:31.074Z,97039.97
2023-02-07T04:05:13.819Z,97048.69
2023-02-07T04:08:57.966Z,97067.81
2023-02-07T04:12:40.758Z,97067.03
2023-02-07T04:16:23.595Z,97064.41
2023-02-07T04:20:07.549Z,97053.34
2023-02-07T04:23:50.287Z,97034.53
2023-02-07T04:27:34.346Z,97024.25
2023-02-07T04:31:17.108Z,97026.91
2023-02-07T04:34:59.903Z,97030.38
2023-02-07T04:38:42.832Z,97020.25
2023-02-07T04:42:25.526Z,97010.09
2023-02-07T04:46:09.863Z,96998.16
2023-02-07T04:49:55.781Z,97008.28
2023-02-07T04:53:38.516Z,97013.44
2023-02-07T04:57:21.239Z,96986.91
2023-02-07T05:01:04.009Z,97015.09
2023-02-07T05:04:48.062Z,97009.19
2023-02-07T05:08:30.883Z,96998.00
2023-02-07T05:12:14.032Z,97003.59
2023-02-07T05:15:56.792Z,97007.84
2023-02-07T05:19:39.852Z,97029.31
2023-02-07T05:23:24.051Z,97031.13
2023-02-07T05:27:06.940Z,97021.81
2023-02-07T05:30:49.803Z,97035.78
2023-02-07T05:34:32.584Z,97041.69
2023-02-07T05:38:17.985Z,97048.34
2023-02-07T05:42:02.509Z,97060.44
2023-02-07T05:45:46.605Z,97048.50
2023-02-07T05:49:29.425Z,97036.41
2023-02-07T05:53:12.988Z,97056.97
2023-02-07T05:56:55.718Z,97055.28
2023-02-07T06:00:39.973Z,97055.28
2023-02-07T06:04:22.751Z,97060.59
2023-02-07T06:08:05.729Z,97047.09
2023-02-07T06:11:48.566Z,97053.78
2023-02-07T06:15:31.415Z,97056.59
2023-02-07T06:19:15.653Z,97060.00
2023-02-07T06:22:58.396Z,97064.16
2023-02-07T06:26:41.123Z,97071.88
2023-02-07T06:30:24.113Z,97065.97
2023-02-07T06:34:06.777Z,97074.72
2023-02-07T06:37:50.786Z,97068.84
2023-02-07T06:41:33.420Z,97057.66
2023-02-07T06:45:16.159Z,97054.19
2023-02-07T06:48:58.803Z,97064.59
2023-02-07T06:52:41.458Z,97078.13
2023-02-07T06:56:25.527Z,97077.00
2023-02-07T07:00:09.432Z,97086.38
2023-02-07T07:03:52.568Z,97072.16
2023-02-07T07:07:35.237Z,97082.16
2023-02-07T07:11:18.068Z,97082.88
2023-02-07T07:15:02.122Z,97079.19
2023-02-07T07:18:44.781Z,97077.22
2023-02-07T07:22:27.496Z,97079.88
2023-02-07T07:26:10.213Z,97078.69
2023-02-07T07:29:53.087Z,97087.22
2023-02-07T07:33:37.448Z,97081.94
2023-02-07T07:37:20.164Z,97086.78
2023-02-07T07:41:02.874Z,97083.31
2023-02-07T07:44:45.553Z,97091.47
2023-02-07T07:48:28.455Z,97078.47
2023-02-07T07:52:12.926Z,97073.78
2023-02-07T07:55:57.109Z,97068.34
2023-02-07T07:59:39.884Z,97069.03
2023-02-07T08:03:31.409Z,97062.94
2023-02-07T08:07:15.446Z,97050.69
2023-02-07T08:11:02.121Z,97057.19
2023-02-07T08:14:44.766Z,97063.81
2023-02-07T08:18:27.532Z,97058.53
2023-02-07T08:22:10.376Z,97058.38
2023-02-07T08:25:54.465Z,97055.41
2023-02-07T08:29:37.455Z,97063.56
2023-02-07T08:33:20.170Z,97060.78
2023-02-07T08:37:02.933Z,97059.69
2023-02-07T08:40:46.880Z,97060.28
2023-02-07T08:44:32.949Z,97054.84
2023-02-07T08:48:15.911Z,97069.66
2023-02-07T08:51:58.577Z,97063.03
2023-02-07T08:55:41.878Z,97071.25
2023-02-07T08:59:26.737Z,97080.84
2023-02-07T09:03:11.873Z,97068.28
2023-02-07T09:06:55.658Z,97076.03
2023-02-07T09:10:38.907Z,97069.31
2023-02-07T09:14:21.816Z,97077.66
2023-02-07T09:18:06.266Z,97077.41
2023-02-07T09:21:50.363Z,97091.38
2023-02-07T09:25:33.256Z,97099.28
2023-02-07T09:29:16.355Z,97095.19
2023-02-07T09:32:59.292Z,97078.22
2023-02-07T09:36:46.729Z,97082.88
2023-02-07T09:40:33.655Z,97084.94
2023-02-07T09:44:20.530Z,97094.34
2023-02-07T09:48:06.001Z,97088.84
2023-02-07T09:51:49.802Z,97093.81
2023-02-07T09:55:41.076Z,97099.56
2023-02-07T09:59:26.267Z,97088.31
2023-02-07T10:03:12.602Z,97092.47
2023-02-07T10:06:57.838Z,97100.31
2023-02-07T10:10:45.845Z,97085.00
2023-02-07T10:14:39.897Z,97094.13
2023-02-07T10:18:39.379Z,97085.94
2023-02-07T10:22:27.654Z,97080.25
2023-02-07T10:26:27.005Z,97078.84
2023-02-07T10:30:12.740Z,97068.06
2023-02-07T10:34:00.375Z,97072.03
2023-02-07T10:37:48.079Z,97075.00
2023-02-07T10:41:38.127Z,97075.19
2023-02-07T10:45:20.940Z,97078.13
2023-02-07T10:49:03.811Z,97084.22
2023-02-07T10:52:50.947Z,97082.84
2023-02-07T10:56:37.301Z,97088.56
2023-02-07T11:00:24.942Z,97078.72
2023-02-07T11:04:23.674Z,97080.75
2023-02-07T11:08:12.568Z,97083.69
2023-02-07T11:11:58.149Z,97074.28
2023-02-07T11:15:49.410Z,97084.16
2023-02-07T11:19:32.442Z,97082.69
2023-02-07T11:23:16.204Z,97078.41
2023-02-07T11:27:05.016Z,97085.31
2023-02-07T11:30:48.104Z,97069.78
2023-02-07T11:34:45.832Z,97069.44
2023-02-07T11:38:30.043Z,97075.34
2023-02-07T11:42:15.765Z,97059.25
2023-02-07T11:46:01.510Z,97050.00
2023-02-07T11:49:46.544Z,97049.22
2023-02-07T11:53:37.947Z,97032.38
2023-02-07T11:57:23.240Z,97035.59
2023-02-07T12:01:07.611Z,97034.56
2023-02-07T12:04:50.520Z,97027.34
2023-02-07T12:08:34.773Z,97016.72
2023-02-07T12:12:22.743Z,97016.25
2023-02-07T12:16:08.651Z,97014.19
2023-02-07T12:19:55.141Z,97010.38
2023-02-07T12:23:43.449Z,97010.47
2023-02-07T12:27:31.079Z,97010.56
2023-02-07T12:31:19.681Z,97008.31
2023-02-07T12:35:07.602Z,96997.53
2023-02-07T12:38:54.990Z,96995.34
2023-02-07T12:42:43.006Z,96977.75
2023-02-07T12:46:32.634Z,96988.94
2023-02-07T12:50:43.492Z,96973.91
2023-02-07T12:54:38.788Z,96967.31
2023-02-07T12:58:37.833Z,96973.50
2023-02-07T13:02:33.684Z,96975.41
2023-02-07T13:06:29.190Z,96968.06
2023-02-07T13:10:21.575Z,96976.69
2023-02-07T13:14:14.496Z,96966.97
2023-02-07T13:18:01.383Z,96976.28
2023-02-07T13:21:51.619Z,96962.22
2023-02-07T13:25:37.575Z,96968.06
2023-02-07T13:29:23.532Z,96969.03
2023-02-07T13:33:24.853Z,96960.75
2023-02-07T13:37:16.817Z,96975.63
2023-02-07T13:41:04.176Z,96979.56
2023-02-07T13:44:54.833Z,96966.97
2023-02-07T13:48:42.141Z,96964.34
2023-02-07T13:52:28.340Z,96970.44
2023-02-07T13:56:33.509Z,96981.72
2023-02-07T14:00:23.840Z,96973.16
2023-02-07T14:04:08.482Z,96985.16
2023-02-07T14:07:56.345Z,96992.78
2023-02-07T14:11:44.950Z,96990.63
2023-02-07T14:15:57.985Z,97006.06
2023-02-07T14:19:51.842Z,96999.78
2023-02-07T14:23:59.638Z,97010.06
2023-02-07T14:27:43.463Z,97018.34
2023-02-07T14:31:31.995Z,97024.81
2023-02-07T14:35:32.740Z,97019.28
2023-02-07T14:39:30.303Z,97021.59
2023-02-07T14:43:18.897Z,97018.22
2023-02-07T14:47:04.500Z,97012.47
2023-02-07T14:50:52.684Z,97021.09
2023-02-07T14:54:43.539Z,97027.91
2023-02-07T14:58:30.863Z,97034.44
2023-02-07T15:02:34.560Z,97031.53
2023-02-07T15:06:30.749Z,97042.94
2023-02-07T15:10:18.773Z,97034.94
2023-02-07T15:14:03.196Z,97040.16
2023-02-07T15:17:47.581Z,97041.03
2023-02-07T15:21:33.468Z,97048.84
2023-02-07T15:25:16.592Z,97048.41
2023-02-07T15:29:00.624Z,97054.59
2023-02-07T15:32:46.315Z,97053.03
2023-02-07T15:36:33.985Z,97053.28
2023-02-07T15:40:17.732Z,97047.06
2023-02-07T15:44:02.154Z,97047.97
2023-02-07T15:47:44.830Z,97061.06
2023-02-07T15:51:31.878Z,97057.81
2023-02-07T15:55:18.657Z,97076.34
2023-02-07T15:59:03.616Z,97081.03
2023-02-07T16:02:52.450Z,97079.41
2023-02-07T16:06:36.833Z,97082.66
2023-02-07T16:10:33.086Z,97082.78
2023-02-07T16:14:22.268Z,97089.88
2023-02-07T16:18:06.167Z,97080.81
2023-02-07T16:21:54.231Z,97089.88
2023-02-07T16:25:37.630Z,97090.81
2023-02-07T16:29:21.679Z,97095.78
2023-02-07T16:33:05.756Z,97104.06
2023-02-07T16:36:50.571Z,97094.53
2023-02-07T16:40:34.644Z,97097.50
2023-02-07T16:44:19.573Z,97101.88
2023-02-07T16:48:02.273Z,97104.78
2023-02-07T16:51:45.553Z,97097.13
2023-02-07T16:55:29.155Z,97107.19
2023-02-07T16:59:14.107Z,97091.97
2023-02-07T17:02:56.773Z,97102.31
2023-02-07T17:06:40.131Z,97110.59
2023-02-07T17:10:26.428Z,97124.25
2023-02-07T17:14:09.067Z,97125.47
2023-02-07T17:17:53.853Z,97112.19
2023-02-07T17:21:36.670Z,97109.09
2023-02-07T17:25:20.210Z,97116.28
2023-02-07T17:29:02.906Z,97111.47
2023-02-07T17:32:45.735Z,97123.06
2023-02-07T17:36:29.928Z,97105.13
2023-02-07T17:40:22.945Z,97114.75
2023-02-07T17:44:05.777Z,97120.13
2023-02-07T17:47:48.488Z,97115.34
2023-02-07T17:51:32.516Z,97123.59
2023-02-07T17:55:15.661Z,97125.19
2023-02-07T17:59:00.659Z,97129.53
2023-02-07T18:02:45.827Z,97128.34
2023-02-07T18:06:32.120Z,97124.31
2023-02-07T18:10:17.925Z,97117.66
2023-02-07T18:14:01.848Z,97122.06
2023-02-07T18:17:47.258Z,97115.41
2023-02-07T18:21:30.276Z,97125.84
2023-02-07T18:25:14.310Z,97115.69
2023-02-07T18:28:57.042Z,97118.94
2023-02-07T18:32:39.991Z,97122.66
2023-02-07T18:36:28.264Z,97118.59
2023-02-07T18:40:12.947Z,97126.34
2023-02-07T18:43:56.992Z,97119.50
2023-02-07T18:47:39.681Z,97121.34
2023-02-07T18:51:23.445Z,97124.41
2023-02-07T18:55:06.856Z,97123.94
2023-02-07T18:58:56.461Z,97114.81
2023-02-07T19:02:40.586Z,97121.50
2023-02-07T19:06:25.810Z,97116.34
2023-02-07T19:10:12.475Z,97121.69
2023-02-07T19:13:56.155Z,97125.19
2023-02-07T19:17:41.615Z,97119.84
2023-02-07T19:21:28.209Z,97126.22
2023-02-07T19:25:10.912Z,97130.72
2023-02-07T19:28:54.362Z,97125.00
2023-02-07T19:32:38.892Z,97127.59
2023-02-07T19:36:25.630Z,97130.44
2023-02-07T19:40:10.736Z,97127.28
2023-02-07T19:43:53.811Z,97120.66
2023-02-07T19:47:36.755Z,97129.31
2023-02-07T19:51:22.808Z,97132.06
2023-02-07T19:55:07.383Z,97135.66
2023-02-07T19:58:52.147Z,97135.84
2023-02-07T20:02:35.256Z,97130.84
2023-02-07T20:06:19.709Z,97136.19
2023-02-07T20:10:02.416Z,97151.03
2023-02-07T20:13:48.343Z,97137.53
2023-02-07T20:17:31.024Z,97137.03
2023-02-07T20:21:15.421Z,97138.06
2023-02-07T20:24:58.147Z,97136.31
2023-02-07T20:28:43.025Z,97139.16
2023-02-07T20:32:27.014Z,97140.31
2023-02-07T20:36:10.903Z,97143.06
2023-02-07T20:39:53.668Z,97141.41
2023-02-07T20:43:36.451Z,97157.06
2023-02-07T20:47:19.151Z,97143.41
2023-02-07T20:51:09.750Z,97145.50
2023-02-07T20:54:52.560Z,97156.75
2023-02-07T20:58:35.386Z,97152.44
2023-02-07T21:02:18.038Z,97152.44
2023-02-07T21:06:00.672Z,97155.00
2023-02-07T21:09:44.749Z,97160.41
2023-02-07T21:13:28.241Z,97161.25
2023-02-07T21:17:11.551Z,97163.09
2023-02-07T21:20:54.311Z,97166.75
2023-02-07T21:24:37.146Z,97158.44
2023-02-07T21:28:21.246Z,97143.13
2023-02-07T21:32:06.561Z,97150.13
2023-02-07T21:35:52.153Z,97152.09
2023-02-07T21:39:34.890Z,97151.50
2023-02-07T21:43:17.595Z,97154.25
2023-02-07T21:47:01.678Z,97147.44
2023-02-07T21:50:44.332Z,97135.44
2023-02-07T21:54:27.052Z,97138.09
2023-02-07T21:58:09.767Z,97135.63
2023-02-07T22:01:52.604Z,97130.63
2023-02-07T22:05:36.727Z,97128.88
2023-02-07T22:09:21.900Z,97134.94
2023-02-07T22:13:06.089Z,97141.09
2023-02-07T22:16:51.357Z,97134.44
2023-02-07T22:20:34.130Z,97136.28
2023-02-07T22:24:19.089Z,97131.13
2023-02-07T22:28:01.790Z,97123.38
2023-02-07T22:31:44.566Z,97121.66
2023-02-07T22:35:28.586Z,97111.50
2023-02-07T22:39:13.316Z,97120.97
2023-02-07T22:42:59.343Z,97126.28
2023-02-07T22:46:43.390Z,97134.19
2023-02-07T22:50:26.072Z,97129.19
2023-02-07T22:54:10.869Z,97117.22
2023-02-07T22:57:54.057Z,97111.31
2023-02-07T23:01:39.679Z,97100.19
2023-02-07T23:05:22.397Z,97093.38
2023-02-07T23:09:06.253Z,97101.34
2023-02-07T23:12:48.966Z,97103.34
2023-02-07T23:16:32.229Z,97110.44
2023-02-07T23:20:16.330Z,97101.06
2023-02-07T23:23:59.577Z,97093.50
2023-02-07T23:27:42.267Z,97090.16
2023-02-07T23:31:25.859Z,97096.31
2023-02-07T23:35:09.351Z,97101.63
2023-02-07T23:38:53.378Z,97091.56
2023-02-07T23:42:36.113Z,97083.91
2023-02-07T23:46:19.014Z,97089.16
2023-02-07T23:50:01.730Z,97096.13
2023-02-07T23:53:44.890Z,97085.97
2023-02-07T23:57:28.947Z,97090.38
